GB-0027 weather

Stancombe Farm Airstrip (Private)
Litton Cheney, England, United Kingdom

Public forecast

Using degrees Celsius for public forecast. Weather courtesy of forecast.io.

METAR (pilot weather report)

Closest report is RNAS Yeovilton, 17.1 nm (31.7 km) N. Retrieved 2019/07/16 02:50 UTC (43 minutes ago):

EGDY 160250Z 14005KT CAVOK 10/09 Q1020 BLU

TAF (pilot weather forecast)

Forecast is more than 12 hours old.

Closest forecast is RNAS Yeovilton, 17.1 nm (31.7 km) N. Retrieved 2019/05/01 18:06 UTC (3 months ago):

TAF TAF EGDY 010100Z 3018/0103 CNL